sensor_id;sensor_type;location;lat;lon;timestamp;P1;P2;P0
42510;PMS7003;28141;51.120;17.114;2022-11-04T00:00:18;20;13;8
42510;PMS7003;28141;51.120;17.114;2022-11-04T00:03:22;18;11;6
42510;PMS7003;28141;51.120;17.114;2022-11-04T00:06:25;18;11;7
42510;PMS7003;28141;51.120;17.114;2022-11-04T00:09:29;18;10;7
42510;PMS7003;28141;51.120;17.114;2022-11-04T00:12:32;17;10;7
42510;PMS7003;28141;51.120;17.114;2022-11-04T00:15:36;19;10;8
42510;PMS7003;28141;51.120;17.114;2022-11-04T00:19:18;17;10;7
42510;PMS7003;28141;51.120;17.114;2022-11-04T00:22:22;19;12;8
42510;PMS7003;28141;51.120;17.114;2022-11-04T00:25:37;17;9;6
42510;PMS7003;28141;51.120;17.114;2022-11-04T00:28:53;19;11;7
42510;PMS7003;28141;51.120;17.114;2022-11-04T00:31:56;19;11;8
42510;PMS7003;28141;51.120;17.114;2022-11-04T00:35:38;18;11;8
42510;PMS7003;28141;51.120;17.114;2022-11-04T00:38:41;20;12;7
42510;PMS7003;28141;51.120;17.114;2022-11-04T00:41:45;16;9;7
42510;PMS7003;28141;51.120;17.114;2022-11-04T00:44:49;18;10;8
42510;PMS7003;28141;51.120;17.114;2022-11-04T00:47:52;18;9;6
42510;PMS7003;28141;51.120;17.114;2022-11-04T00:50:56;21;11;8
42510;PMS7003;28141;51.120;17.114;2022-11-04T00:53:59;18;10;7
42510;PMS7003;28141;51.120;17.114;2022-11-04T00:57:03;18;10;7
42510;PMS7003;28141;51.120;17.114;2022-11-04T01:00:07;19;12;7
42510;PMS7003;28141;51.120;17.114;2022-11-04T01:03:11;19;10;7
42510;PMS7003;28141;51.120;17.114;2022-11-04T01:06:15;20;12;7
42510;PMS7003;28141;51.120;17.114;2022-11-04T01:09:45;17;9;7
42510;PMS7003;28141;51.120;17.114;2022-11-04T01:12:51;16;8;6
42510;PMS7003;28141;51.120;17.114;2022-11-04T01:15:58;17;10;6
42510;PMS7003;28141;51.120;17.114;2022-11-04T01:19:05;22;12;7
42510;PMS7003;28141;51.120;17.114;2022-11-04T01:22:09;17;9;6
42510;PMS7003;28141;51.120;17.114;2022-11-04T01:25:13;20;9;7
42510;PMS7003;28141;51.120;17.114;2022-11-04T01:28:16;16;8;6
42510;PMS7003;28141;51.120;17.114;2022-11-04T01:31:24;18;9;6
42510;PMS7003;28141;51.120;17.114;2022-11-04T01:34:58;17;10;8
42510;PMS7003;28141;51.120;17.114;2022-11-04T01:38:01;17;10;7
42510;PMS7003;28141;51.120;17.114;2022-11-04T01:41:05;17;10;7
42510;PMS7003;28141;51.120;17.114;2022-11-04T01:50:39;17;10;6
42510;PMS7003;28141;51.120;17.114;2022-11-04T01:53:42;19;11;7
42510;PMS7003;28141;51.120;17.114;2022-11-04T01:57:16;17;10;7
42510;PMS7003;28141;51.120;17.114;2022-11-04T02:00:22;16;8;6
42510;PMS7003;28141;51.120;17.114;2022-11-04T02:03:30;17;9;6
42510;PMS7003;28141;51.120;17.114;2022-11-04T02:06:37;17;9;6
42510;PMS7003;28141;51.120;17.114;2022-11-04T02:09:40;22;12;7
42510;PMS7003;28141;51.120;17.114;2022-11-04T02:12:46;17;9;5
42510;PMS7003;28141;51.120;17.114;2022-11-04T02:26:10;19;9;6
42510;PMS7003;28141;51.120;17.114;2022-11-04T02:29:20;18;10;7
42510;PMS7003;28141;51.120;17.114;2022-11-04T02:49:43;17;10;8
42510;PMS7003;28141;51.120;17.114;2022-11-04T02:56:08;17;7;5
42510;PMS7003;28141;51.120;17.114;2022-11-04T03:03:00;17;9;7
42510;PMS7003;28141;51.120;17.114;2022-11-04T03:06:10;20;10;6
42510;PMS7003;28141;51.120;17.114;2022-11-04T03:09:19;17;7;5
42510;PMS7003;28141;51.120;17.114;2022-11-04T03:12:26;16;8;5
42510;PMS7003;28141;51.120;17.114;2022-11-04T03:15:34;19;9;7
42510;PMS7003;28141;51.120;17.114;2022-11-04T03:18:48;15;8;5
42510;PMS7003;28141;51.120;17.114;2022-11-04T03:22:26;17;9;5
42510;PMS7003;28141;51.120;17.114;2022-11-04T03:25:34;18;10;6
42510;PMS7003;28141;51.120;17.114;2022-11-04T03:28:44;15;6;5
42510;PMS7003;28141;51.120;17.114;2022-11-04T03:35:10;18;9;5
42510;PMS7003;28141;51.120;17.114;2022-11-04T03:38:44;16;9;6
42510;PMS7003;28141;51.120;17.114;2022-11-04T03:41:52;15;8;5
42510;PMS7003;28141;51.120;17.114;2022-11-04T03:45:02;15;8;5
42510;PMS7003;28141;51.120;17.114;2022-11-04T03:48:07;16;9;6
42510;PMS7003;28141;51.120;17.114;2022-11-04T03:51:11;17;9;6
42510;PMS7003;28141;51.120;17.114;2022-11-04T03:54:14;17;9;5
42510;PMS7003;28141;51.120;17.114;2022-11-04T04:00:59;15;8;5
42510;PMS7003;28141;51.120;17.114;2022-11-04T04:10:41;16;9;6
42510;PMS7003;28141;51.120;17.114;2022-11-04T04:17:39;16;7;5
42510;PMS7003;28141;51.120;17.114;2022-11-04T04:20:44;19;8;5
42510;PMS7003;28141;51.120;17.114;2022-11-04T04:23:50;15;8;6
42510;PMS7003;28141;51.120;17.114;2022-11-04T04:27:10;17;10;5
42510;PMS7003;28141;51.120;17.114;2022-11-04T04:30:53;16;9;5
42510;PMS7003;28141;51.120;17.114;2022-11-04T04:33:57;15;8;5
42510;PMS7003;28141;51.120;17.114;2022-11-04T04:40:16;16;9;6
42510;PMS7003;28141;51.120;17.114;2022-11-04T04:43:39;19;12;7
42510;PMS7003;28141;51.120;17.114;2022-11-04T04:47:23;15;8;5
42510;PMS7003;28141;51.120;17.114;2022-11-04T04:50:33;18;9;7
42510;PMS7003;28141;51.120;17.114;2022-11-04T04:53:39;16;8;5
42510;PMS7003;28141;51.120;17.114;2022-11-04T04:56:42;17;10;7
42510;PMS7003;28141;51.120;17.114;2022-11-04T04:59:46;18;9;6
42510;PMS7003;28141;51.120;17.114;2022-11-04T05:02:50;14;7;5
42510;PMS7003;28141;51.120;17.114;2022-11-04T05:05:53;17;10;7
42510;PMS7003;28141;51.120;17.114;2022-11-04T05:08:57;16;9;6
42510;PMS7003;28141;51.120;17.114;2022-11-04T05:12:00;16;9;7
42510;PMS7003;28141;51.120;17.114;2022-11-04T05:15:04;16;9;6
42510;PMS7003;28141;51.120;17.114;2022-11-04T05:18:35;18;10;6
42510;PMS7003;28141;51.120;17.114;2022-11-04T05:21:39;16;9;6
42510;PMS7003;28141;51.120;17.114;2022-11-04T05:24:43;17;10;7
42510;PMS7003;28141;51.120;17.114;2022-11-04T05:27:46;19;10;7
42510;PMS7003;28141;51.120;17.114;2022-11-04T05:30:50;17;9;6
42510;PMS7003;28141;51.120;17.114;2022-11-04T05:33:53;19;11;7
42510;PMS7003;28141;51.120;17.114;2022-11-04T05:36:58;19;10;6
42510;PMS7003;28141;51.120;17.114;2022-11-04T05:40:01;18;10;7
42510;PMS7003;28141;51.120;17.114;2022-11-04T05:43:05;19;11;7
42510;PMS7003;28141;51.120;17.114;2022-11-04T05:46:09;18;10;7
42510;PMS7003;28141;51.120;17.114;2022-11-04T05:49:13;19;10;7
42510;PMS7003;28141;51.120;17.114;2022-11-04T05:52:42;16;9;7
42510;PMS7003;28141;51.120;17.114;2022-11-04T05:55:45;19;10;7
42510;PMS7003;28141;51.120;17.114;2022-11-04T05:58:49;17;9;7
42510;PMS7003;28141;51.120;17.114;2022-11-04T06:01:53;19;9;6
42510;PMS7003;28141;51.120;17.114;2022-11-04T06:04:56;18;11;8
42510;PMS7003;28141;51.120;17.114;2022-11-04T06:08:00;21;11;8
42510;PMS7003;28141;51.120;17.114;2022-11-04T06:11:03;18;11;8
42510;PMS7003;28141;51.120;17.114;2022-11-04T06:14:07;21;11;8
42510;PMS7003;28141;51.120;17.114;2022-11-04T06:17:14;18;10;7
42510;PMS7003;28141;51.120;17.114;2022-11-04T06:20:19;18;11;8
42510;PMS7003;28141;51.120;17.114;2022-11-04T06:23:51;19;12;7
42510;PMS7003;28141;51.120;17.114;2022-11-04T06:26:58;21;12;9
42510;PMS7003;28141;51.120;17.114;2022-11-04T06:30:02;21;13;8
42510;PMS7003;28141;51.120;17.114;2022-11-04T06:33:06;20;14;7
42510;PMS7003;28141;51.120;17.114;2022-11-04T06:36:11;19;11;7
42510;PMS7003;28141;51.120;17.114;2022-11-04T06:39:16;17;11;8
42510;PMS7003;28141;51.120;17.114;2022-11-04T06:42:19;23;11;7
42510;PMS7003;28141;51.120;17.114;2022-11-04T06:45:22;21;13;7
42510;PMS7003;28141;51.120;17.114;2022-11-04T06:48:26;20;12;8
42510;PMS7003;28141;51.120;17.114;2022-11-04T06:51:34;18;12;8
42510;PMS7003;28141;51.120;17.114;2022-11-04T06:54:38;19;11;8
42510;PMS7003;28141;51.120;17.114;2022-11-04T06:58:10;21;12;7
42510;PMS7003;28141;51.120;17.114;2022-11-04T07:01:14;18;11;7
42510;PMS7003;28141;51.120;17.114;2022-11-04T07:04:18;19;11;7
42510;PMS7003;28141;51.120;17.114;2022-11-04T07:07:22;19;11;8
42510;PMS7003;28141;51.120;17.114;2022-11-04T07:10:25;20;12;9
42510;PMS7003;28141;51.120;17.114;2022-11-04T07:13:29;20;12;8
42510;PMS7003;28141;51.120;17.114;2022-11-04T07:16:33;21;13;8
42510;PMS7003;28141;51.120;17.114;2022-11-04T07:19:36;20;11;8
42510;PMS7003;28141;51.120;17.114;2022-11-04T07:22:40;19;11;8
42510;PMS7003;28141;51.120;17.114;2022-11-04T07:25:44;19;11;8
42510;PMS7003;28141;51.120;17.114;2022-11-04T07:28:47;20;12;9
42510;PMS7003;28141;51.120;17.114;2022-11-04T07:31:51;22;13;8
42510;PMS7003;28141;51.120;17.114;2022-11-04T07:35:22;20;12;9
42510;PMS7003;28141;51.120;17.114;2022-11-04T07:38:25;20;12;8
42510;PMS7003;28141;51.120;17.114;2022-11-04T07:41:29;19;10;6
42510;PMS7003;28141;51.120;17.114;2022-11-04T07:44:33;19;11;8
42510;PMS7003;28141;51.120;17.114;2022-11-04T07:47:36;18;11;8
42510;PMS7003;28141;51.120;17.114;2022-11-04T07:50:40;18;11;8
42510;PMS7003;28141;51.120;17.114;2022-11-04T07:53:43;19;11;8
42510;PMS7003;28141;51.120;17.114;2022-11-04T07:56:48;20;12;8
42510;PMS7003;28141;51.120;17.114;2022-11-04T07:59:51;20;12;8
42510;PMS7003;28141;51.120;17.114;2022-11-04T08:02:55;18;11;8
42510;PMS7003;28141;51.120;17.114;2022-11-04T08:05:59;19;11;8
42510;PMS7003;28141;51.120;17.114;2022-11-04T08:09:30;17;10;7
42510;PMS7003;28141;51.120;17.114;2022-11-04T08:12:33;20;12;8
42510;PMS7003;28141;51.120;17.114;2022-11-04T08:15:39;22;12;8
42510;PMS7003;28141;51.120;17.114;2022-11-04T08:18:43;18;11;9
42510;PMS7003;28141;51.120;17.114;2022-11-04T08:21:47;18;11;8
42510;PMS7003;28141;51.120;17.114;2022-11-04T08:24:51;17;10;8
42510;PMS7003;28141;51.120;17.114;2022-11-04T08:27:54;19;12;7
42510;PMS7003;28141;51.120;17.114;2022-11-04T08:34:43;18;10;7
42510;PMS7003;28141;51.120;17.114;2022-11-04T08:37:47;19;11;8
42510;PMS7003;28141;51.120;17.114;2022-11-04T08:40:50;16;10;6
42510;PMS7003;28141;51.120;17.114;2022-11-04T08:43:55;21;12;8
42510;PMS7003;28141;51.120;17.114;2022-11-04T08:47:02;18;11;7
42510;PMS7003;28141;51.120;17.114;2022-11-04T08:50:06;24;12;8
42510;PMS7003;28141;51.120;17.114;2022-11-04T08:53:10;18;11;8
42510;PMS7003;28141;51.120;17.114;2022-11-04T08:59:25;17;10;7
42510;PMS7003;28141;51.120;17.114;2022-11-04T09:02:54;18;9;7
42510;PMS7003;28141;51.120;17.114;2022-11-04T09:05:58;16;9;6
42510;PMS7003;28141;51.120;17.114;2022-11-04T09:09:06;18;10;7
42510;PMS7003;28141;51.120;17.114;2022-11-04T09:12:11;19;10;7
42510;PMS7003;28141;51.120;17.114;2022-11-04T09:15:15;17;10;7
42510;PMS7003;28141;51.120;17.114;2022-11-04T09:18:18;19;10;7
42510;PMS7003;28141;51.120;17.114;2022-11-04T09:21:22;17;8;7
42510;PMS7003;28141;51.120;17.114;2022-11-04T09:24:26;17;9;6
42510;PMS7003;28141;51.120;17.114;2022-11-04T09:27:30;19;10;7
42510;PMS7003;28141;51.120;17.114;2022-11-04T09:30:33;20;11;7
42510;PMS7003;28141;51.120;17.114;2022-11-04T09:34:03;18;10;8
42510;PMS7003;28141;51.120;17.114;2022-11-04T09:37:07;17;10;7
42510;PMS7003;28141;51.120;17.114;2022-11-04T09:40:13;17;10;7
42510;PMS7003;28141;51.120;17.114;2022-11-04T09:46:35;19;11;8
42510;PMS7003;28141;51.120;17.114;2022-11-04T09:49:41;19;11;7
42510;PMS7003;28141;51.120;17.114;2022-11-04T09:52:50;21;13;8
42510;PMS7003;28141;51.120;17.114;2022-11-04T09:56:28;22;12;9
42510;PMS7003;28141;51.120;17.114;2022-11-04T09:59:36;19;11;9
42510;PMS7003;28141;51.120;17.114;2022-11-04T10:12:58;21;12;9
42510;PMS7003;28141;51.120;17.114;2022-11-04T10:22:38;20;12;8
42510;PMS7003;28141;51.120;17.114;2022-11-04T10:26:17;19;13;9
42510;PMS7003;28141;51.120;17.114;2022-11-04T10:29:27;20;11;8
42510;PMS7003;28141;51.120;17.114;2022-11-04T10:32:40;21;13;9
42510;PMS7003;28141;51.120;17.114;2022-11-04T10:39:05;24;15;10
42510;PMS7003;28141;51.120;17.114;2022-11-04T10:42:40;22;14;9
42510;PMS7003;28141;51.120;17.114;2022-11-04T10:45:57;19;12;8
42510;PMS7003;28141;51.120;17.114;2022-11-04T10:52:14;22;15;8
42510;PMS7003;28141;51.120;17.114;2022-11-04T10:55:25;20;11;8
42510;PMS7003;28141;51.120;17.114;2022-11-04T10:59:04;24;14;9
42510;PMS7003;28141;51.120;17.114;2022-11-04T11:02:14;22;15;10
42510;PMS7003;28141;51.120;17.114;2022-11-04T11:05:22;21;12;8
42510;PMS7003;28141;51.120;17.114;2022-11-04T11:08:28;25;16;11
42510;PMS7003;28141;51.120;17.114;2022-11-04T11:11:35;21;13;8
42510;PMS7003;28141;51.120;17.114;2022-11-04T11:14:46;22;13;9
42510;PMS7003;28141;51.120;17.114;2022-11-04T11:18:17;22;15;10
42510;PMS7003;28141;51.120;17.114;2022-11-04T11:21:29;22;14;10
42510;PMS7003;28141;51.120;17.114;2022-11-04T11:24:42;23;15;10
42510;PMS7003;28141;51.120;17.114;2022-11-04T11:27:49;22;15;10
42510;PMS7003;28141;51.120;17.114;2022-11-04T11:31:00;20;13;9
42510;PMS7003;28141;51.120;17.114;2022-11-04T11:34:40;22;13;9
42510;PMS7003;28141;51.120;17.114;2022-11-04T11:37:50;20;12;8
42510;PMS7003;28141;51.120;17.114;2022-11-04T11:51:16;23;15;9
42510;PMS7003;28141;51.120;17.114;2022-11-04T11:54:34;21;13;9
42510;PMS7003;28141;51.120;17.114;2022-11-04T12:04:43;24;14;9
42510;PMS7003;28141;51.120;17.114;2022-11-04T12:11:09;21;14;9
42510;PMS7003;28141;51.120;17.114;2022-11-04T12:21:22;20;12;8
42510;PMS7003;28141;51.120;17.114;2022-11-04T12:51:47;18;11;7
42510;PMS7003;28141;51.120;17.114;2022-11-04T13:02:03;25;13;8
42510;PMS7003;28141;51.120;17.114;2022-11-04T13:12:18;22;15;9
42510;PMS7003;28141;51.120;17.114;2022-11-04T13:15:23;21;13;8
42510;PMS7003;28141;51.120;17.114;2022-11-04T13:18:31;17;11;8
42510;PMS7003;28141;51.120;17.114;2022-11-04T13:21:39;20;12;8
42510;PMS7003;28141;51.120;17.114;2022-11-04T13:27:55;20;13;7
42510;PMS7003;28141;51.120;17.114;2022-11-04T13:31:10;22;11;7
42510;PMS7003;28141;51.120;17.114;2022-11-04T13:34:49;21;10;7
42510;PMS7003;28141;51.120;17.114;2022-11-04T13:44:38;20;11;7
42510;PMS7003;28141;51.120;17.114;2022-11-04T13:48:05;18;11;7
42510;PMS7003;28141;51.120;17.114;2022-11-04T13:51:13;18;11;7
42510;PMS7003;28141;51.120;17.114;2022-11-04T13:57:47;20;10;7
42510;PMS7003;28141;51.120;17.114;2022-11-04T14:04:30;21;11;8
42510;PMS7003;28141;51.120;17.114;2022-11-04T14:09:48;19;12;9
42510;PMS7003;28141;51.120;17.114;2022-11-04T14:12:24;18;11;8
42510;PMS7003;28141;51.120;17.114;2022-11-04T14:18:48;18;10;8
42510;PMS7003;28141;51.120;17.114;2022-11-04T14:22:19;21;13;8
42510;PMS7003;28141;51.120;17.114;2022-11-04T14:28:36;20;11;8
42510;PMS7003;28141;51.120;17.114;2022-11-04T14:31:44;22;13;8
42510;PMS7003;28141;51.120;17.114;2022-11-04T14:35:00;21;12;9
42510;PMS7003;28141;51.120;17.114;2022-11-04T14:38:17;19;12;9
42510;PMS7003;28141;51.120;17.114;2022-11-04T14:41:50;19;12;7
42510;PMS7003;28141;51.120;17.114;2022-11-04T14:44:59;20;12;8
42510;PMS7003;28141;51.120;17.114;2022-11-04T14:48:10;19;11;8
42510;PMS7003;28141;51.120;17.114;2022-11-04T14:51:22;18;10;7
42510;PMS7003;28141;51.120;17.114;2022-11-04T14:54:31;21;12;8
42510;PMS7003;28141;51.120;17.114;2022-11-04T14:57:38;21;13;8
42510;PMS7003;28141;51.120;17.114;2022-11-04T15:01:11;19;12;7
42510;PMS7003;28141;51.120;17.114;2022-11-04T15:04:19;21;12;8
42510;PMS7003;28141;51.120;17.114;2022-11-04T15:10:39;21;13;9
42510;PMS7003;28141;51.120;17.114;2022-11-04T15:13:47;21;11;8
42510;PMS7003;28141;51.120;17.114;2022-11-04T15:16:53;19;12;8
42510;PMS7003;28141;51.120;17.114;2022-11-04T15:20:28;20;13;9
42510;PMS7003;28141;51.120;17.114;2022-11-04T15:23:34;21;12;9
42510;PMS7003;28141;51.120;17.114;2022-11-04T15:26:41;22;12;9
42510;PMS7003;28141;51.120;17.114;2022-11-04T15:33:11;20;13;9
42510;PMS7003;28141;51.120;17.114;2022-11-04T15:36:45;20;12;9
42510;PMS7003;28141;51.120;17.114;2022-11-04T15:39:51;21;14;10
42510;PMS7003;28141;51.120;17.114;2022-11-04T15:42:58;21;14;10
42510;PMS7003;28141;51.120;17.114;2022-11-04T15:46:08;22;13;9
42510;PMS7003;28141;51.120;17.114;2022-11-04T15:49:21;27;17;11
42510;PMS7003;28141;51.120;17.114;2022-11-04T15:52:27;24;15;9
42510;PMS7003;28141;51.120;17.114;2022-11-04T15:55:32;22;14;9
42510;PMS7003;28141;51.120;17.114;2022-11-04T15:59:13;26;15;10
42510;PMS7003;28141;51.120;17.114;2022-11-04T16:05:34;26;17;13
42510;PMS7003;28141;51.120;17.114;2022-11-04T16:08:47;23;16;10
42510;PMS7003;28141;51.120;17.114;2022-11-04T16:15:38;29;18;13
42510;PMS7003;28141;51.120;17.114;2022-11-04T16:18:49;30;20;13
42510;PMS7003;28141;51.120;17.114;2022-11-04T16:21:59;33;23;15
42510;PMS7003;28141;51.120;17.114;2022-11-04T16:25:07;34;23;16
42510;PMS7003;28141;51.120;17.114;2022-11-04T16:28:21;36;26;18
42510;PMS7003;28141;51.120;17.114;2022-11-04T16:35:12;42;27;17
42510;PMS7003;28141;51.120;17.114;2022-11-04T16:38:23;39;28;19
42510;PMS7003;28141;51.120;17.114;2022-11-04T16:41:27;42;29;20
42510;PMS7003;28141;51.120;17.114;2022-11-04T16:44:34;39;29;20
42510;PMS7003;28141;51.120;17.114;2022-11-04T16:47:39;41;29;19
42510;PMS7003;28141;51.120;17.114;2022-11-04T16:54:22;40;30;20
42510;PMS7003;28141;51.120;17.114;2022-11-04T16:57:27;41;29;20
42510;PMS7003;28141;51.120;17.114;2022-11-04T17:00:30;37;27;19
42510;PMS7003;28141;51.120;17.114;2022-11-04T17:03:34;37;28;19
42510;PMS7003;28141;51.120;17.114;2022-11-04T17:06:39;40;29;19
42510;PMS7003;28141;51.120;17.114;2022-11-04T17:09:42;38;27;19
42510;PMS7003;28141;51.120;17.114;2022-11-04T17:12:46;37;26;18
42510;PMS7003;28141;51.120;17.114;2022-11-04T17:15:50;37;26;18
42510;PMS7003;28141;51.120;17.114;2022-11-04T17:18:54;38;25;16
42510;PMS7003;28141;51.120;17.114;2022-11-04T17:22:22;36;26;18
42510;PMS7003;28141;51.120;17.114;2022-11-04T17:25:27;33;26;18
42510;PMS7003;28141;51.120;17.114;2022-11-04T17:28:35;33;26;18
42510;PMS7003;28141;51.120;17.114;2022-11-04T17:31:39;37;27;17
42510;PMS7003;28141;51.120;17.114;2022-11-04T17:34:42;41;28;19
42510;PMS7003;28141;51.120;17.114;2022-11-04T17:37:48;34;24;15
42510;PMS7003;28141;51.120;17.114;2022-11-04T17:40:54;35;26;17
42510;PMS7003;28141;51.120;17.114;2022-11-04T17:44:36;36;26;17
42510;PMS7003;28141;51.120;17.114;2022-11-04T17:47:40;35;26;17
42510;PMS7003;28141;51.120;17.114;2022-11-04T17:50:43;37;27;15
42510;PMS7003;28141;51.120;17.114;2022-11-04T17:53:49;33;23;17
42510;PMS7003;28141;51.120;17.114;2022-11-04T17:56:52;35;25;17
42510;PMS7003;28141;51.120;17.114;2022-11-04T17:59:57;37;24;16
42510;PMS7003;28141;51.120;17.114;2022-11-04T18:03:00;36;26;16
42510;PMS7003;28141;51.120;17.114;2022-11-04T18:06:04;32;24;17
42510;PMS7003;28141;51.120;17.114;2022-11-04T18:09:08;34;24;17
42510;PMS7003;28141;51.120;17.114;2022-11-04T18:12:17;32;22;15
42510;PMS7003;28141;51.120;17.114;2022-11-04T18:19:15;35;24;17
42510;PMS7003;28141;51.120;17.114;2022-11-04T18:22:20;33;25;15
42510;PMS7003;28141;51.120;17.114;2022-11-04T18:25:24;35;25;16
42510;PMS7003;28141;51.120;17.114;2022-11-04T18:28:27;33;23;15
42510;PMS7003;28141;51.120;17.114;2022-11-04T18:31:34;32;22;16
42510;PMS7003;28141;51.120;17.114;2022-11-04T18:34:43;32;24;16
42510;PMS7003;28141;51.120;17.114;2022-11-04T18:37:46;33;22;16
42510;PMS7003;28141;51.120;17.114;2022-11-04T18:41:17;30;21;15
42510;PMS7003;28141;51.120;17.114;2022-11-04T18:44:21;37;25;17
42510;PMS7003;28141;51.120;17.114;2022-11-04T18:47:25;35;23;15
42510;PMS7003;28141;51.120;17.114;2022-11-04T18:50:30;30;21;16
42510;PMS7003;28141;51.120;17.114;2022-11-04T18:53:34;35;26;16
42510;PMS7003;28141;51.120;17.114;2022-11-04T18:56:38;31;22;14
42510;PMS7003;28141;51.120;17.114;2022-11-04T18:59:42;35;26;17
42510;PMS7003;28141;51.120;17.114;2022-11-04T19:02:46;32;20;14
42510;PMS7003;28141;51.120;17.114;2022-11-04T19:05:49;34;23;16
42510;PMS7003;28141;51.120;17.114;2022-11-04T19:08:56;32;24;15
42510;PMS7003;28141;51.120;17.114;2022-11-04T19:12:02;31;23;15
42510;PMS7003;28141;51.120;17.114;2022-11-04T19:15:19;29;21;15
42510;PMS7003;28141;51.120;17.114;2022-11-04T19:18:51;38;24;16
42510;PMS7003;28141;51.120;17.114;2022-11-04T19:21:57;33;23;15
42510;PMS7003;28141;51.120;17.114;2022-11-04T19:25:00;31;23;15
42510;PMS7003;28141;51.120;17.114;2022-11-04T19:28:05;33;24;17
42510;PMS7003;28141;51.120;17.114;2022-11-04T19:31:12;35;24;16
42510;PMS7003;28141;51.120;17.114;2022-11-04T19:34:21;34;25;15
42510;PMS7003;28141;51.120;17.114;2022-11-04T19:37:24;32;22;16
42510;PMS7003;28141;51.120;17.114;2022-11-04T19:40:29;30;22;15
42510;PMS7003;28141;51.120;17.114;2022-11-04T19:43:33;31;22;16
42510;PMS7003;28141;51.120;17.114;2022-11-04T19:47:06;35;23;15
42510;PMS7003;28141;51.120;17.114;2022-11-04T19:50:10;31;22;16
42510;PMS7003;28141;51.120;17.114;2022-11-04T19:53:15;32;21;15
42510;PMS7003;28141;51.120;17.114;2022-11-04T19:56:19;30;22;14
42510;PMS7003;28141;51.120;17.114;2022-11-04T19:59:24;31;22;16
42510;PMS7003;28141;51.120;17.114;2022-11-04T20:02:27;33;22;15
42510;PMS7003;28141;51.120;17.114;2022-11-04T20:05:40;34;24;16
42510;PMS7003;28141;51.120;17.114;2022-11-04T20:08:41;34;24;17
42510;PMS7003;28141;51.120;17.114;2022-11-04T20:11:47;30;20;15
42510;PMS7003;28141;51.120;17.114;2022-11-04T20:15:28;31;21;16
42510;PMS7003;28141;51.120;17.114;2022-11-04T20:18:32;32;23;15
42510;PMS7003;28141;51.120;17.114;2022-11-04T20:21:35;31;22;16
42510;PMS7003;28141;51.120;17.114;2022-11-04T20:24:39;31;21;16
42510;PMS7003;28141;51.120;17.114;2022-11-04T20:27:43;28;20;15
42510;PMS7003;28141;51.120;17.114;2022-11-04T20:30:47;31;21;14
42510;PMS7003;28141;51.120;17.114;2022-11-04T20:33:51;31;21;14
42510;PMS7003;28141;51.120;17.114;2022-11-04T20:36:55;32;22;15
42510;PMS7003;28141;51.120;17.114;2022-11-04T20:39:59;34;24;15
42510;PMS7003;28141;51.120;17.114;2022-11-04T20:43:03;32;22;16
42510;PMS7003;28141;51.120;17.114;2022-11-04T20:46:33;30;22;16
42510;PMS7003;28141;51.120;17.114;2022-11-04T20:49:37;29;21;14
42510;PMS7003;28141;51.120;17.114;2022-11-04T20:52:40;31;21;15
42510;PMS7003;28141;51.120;17.114;2022-11-04T20:55:44;33;23;16
42510;PMS7003;28141;51.120;17.114;2022-11-04T20:58:50;31;21;14
42510;PMS7003;28141;51.120;17.114;2022-11-04T21:01:57;32;22;16
42510;PMS7003;28141;51.120;17.114;2022-11-04T21:05:01;34;21;15
42510;PMS7003;28141;51.120;17.114;2022-11-04T21:08:05;30;21;15
42510;PMS7003;28141;51.120;17.114;2022-11-04T21:11:08;26;19;13
42510;PMS7003;28141;51.120;17.114;2022-11-04T21:14:40;34;24;16
42510;PMS7003;28141;51.120;17.114;2022-11-04T21:17:43;30;20;14
42510;PMS7003;28141;51.120;17.114;2022-11-04T21:20:47;31;21;14
42510;PMS7003;28141;51.120;17.114;2022-11-04T21:23:54;27;19;14
42510;PMS7003;28141;51.120;17.114;2022-11-04T21:26:59;29;21;15
42510;PMS7003;28141;51.120;17.114;2022-11-04T21:30:05;31;18;14
42510;PMS7003;28141;51.120;17.114;2022-11-04T21:33:09;30;20;14
42510;PMS7003;28141;51.120;17.114;2022-11-04T21:36:12;27;19;15
42510;PMS7003;28141;51.120;17.114;2022-11-04T21:39:17;29;21;16
42510;PMS7003;28141;51.120;17.114;2022-11-04T21:42:47;32;23;15
42510;PMS7003;28141;51.120;17.114;2022-11-04T21:45:51;28;20;13
42510;PMS7003;28141;51.120;17.114;2022-11-04T21:48:54;30;21;14
42510;PMS7003;28141;51.120;17.114;2022-11-04T21:51:58;30;20;13
42510;PMS7003;28141;51.120;17.114;2022-11-04T21:55:02;33;21;15
42510;PMS7003;28141;51.120;17.114;2022-11-04T21:58:06;32;21;15
42510;PMS7003;28141;51.120;17.114;2022-11-04T22:01:11;31;24;16
42510;PMS7003;28141;51.120;17.114;2022-11-04T22:04:17;33;24;14
42510;PMS7003;28141;51.120;17.114;2022-11-04T22:07:20;29;20;14
42510;PMS7003;28141;51.120;17.114;2022-11-04T22:14:15;33;21;15
42510;PMS7003;28141;51.120;17.114;2022-11-04T22:17:19;31;23;14
42510;PMS7003;28141;51.120;17.114;2022-11-04T22:20:22;29;21;13
42510;PMS7003;28141;51.120;17.114;2022-11-04T22:23:26;29;18;12
42510;PMS7003;28141;51.120;17.114;2022-11-04T22:26:30;29;20;14
42510;PMS7003;28141;51.120;17.114;2022-11-04T22:29:35;29;21;15
42510;PMS7003;28141;51.120;17.114;2022-11-04T22:32:38;29;21;15
42510;PMS7003;28141;51.120;17.114;2022-11-04T22:35:44;29;19;14
42510;PMS7003;28141;51.120;17.114;2022-11-04T22:39:13;30;19;13
42510;PMS7003;28141;51.120;17.114;2022-11-04T22:42:16;29;19;13
42510;PMS7003;28141;51.120;17.114;2022-11-04T22:45:23;29;21;14
42510;PMS7003;28141;51.120;17.114;2022-11-04T22:48:26;31;20;14
42510;PMS7003;28141;51.120;17.114;2022-11-04T22:51:30;30;19;13
42510;PMS7003;28141;51.120;17.114;2022-11-04T22:54:34;26;18;13
42510;PMS7003;28141;51.120;17.114;2022-11-04T22:57:37;28;18;13
42510;PMS7003;28141;51.120;17.114;2022-11-04T23:00:41;30;20;14
42510;PMS7003;28141;51.120;17.114;2022-11-04T23:03:45;25;16;11
42510;PMS7003;28141;51.120;17.114;2022-11-04T23:06:48;28;19;13
42510;PMS7003;28141;51.120;17.114;2022-11-04T23:09:51;25;16;12
42510;PMS7003;28141;51.120;17.114;2022-11-04T23:13:33;29;20;13
42510;PMS7003;28141;51.120;17.114;2022-11-04T23:16:49;29;19;12
42510;PMS7003;28141;51.120;17.114;2022-11-04T23:20:07;24;16;12
42510;PMS7003;28141;51.120;17.114;2022-11-04T23:23:16;26;17;12
42510;PMS7003;28141;51.120;17.114;2022-11-04T23:26:57;25;16;12
42510;PMS7003;28141;51.120;17.114;2022-11-04T23:30:03;29;19;12
42510;PMS7003;28141;51.120;17.114;2022-11-04T23:33:21;25;18;12
42510;PMS7003;28141;51.120;17.114;2022-11-04T23:36:36;24;17;12
42510;PMS7003;28141;51.120;17.114;2022-11-04T23:39:51;25;16;11
42510;PMS7003;28141;51.120;17.114;2022-11-04T23:43:21;28;17;12
42510;PMS7003;28141;51.120;17.114;2022-11-04T23:46:25;25;17;13